createdAt,value
2024-02-11T00:00:36.369Z,5.62
2024-02-11T00:01:59.944Z,5.59
2024-02-11T00:03:03.242Z,5.59
2024-02-11T00:04:06.722Z,5.58
2024-02-11T00:05:10.627Z,5.57
2024-02-11T00:06:15.448Z,5.57
2024-02-11T00:07:18.846Z,5.57
2024-02-11T00:08:21.676Z,5.56
2024-02-11T00:09:25.272Z,5.56
2024-02-11T00:10:28.235Z,5.56
2024-02-11T00:11:31.328Z,5.56
2024-02-11T00:12:34.259Z,5.57
2024-02-11T00:13:37.343Z,5.57
2024-02-11T00:14:40.490Z,5.57
2024-02-11T00:15:45.046Z,5.57
2024-02-11T00:16:48.962Z,5.58
2024-02-11T00:17:52.058Z,5.58
2024-02-11T00:18:55.097Z,5.57
2024-02-11T00:19:58.194Z,5.58
2024-02-11T00:21:02.918Z,5.57
2024-02-11T00:22:05.930Z,5.56
2024-02-11T00:23:08.932Z,5.55
2024-02-11T00:24:11.972Z,5.54
2024-02-11T00:25:15.888Z,5.54
2024-02-11T00:26:18.746Z,5.53
2024-02-11T00:27:24.626Z,5.53
2024-02-11T00:28:27.886Z,5.52
2024-02-11T00:29:30.799Z,5.51
2024-02-11T00:30:33.817Z,5.51
2024-02-11T00:31:39.275Z,5.50
2024-02-11T00:32:42.216Z,5.50
2024-02-11T00:33:46.105Z,5.50
2024-02-11T00:34:49.043Z,5.50
2024-02-11T00:35:52.634Z,5.50
2024-02-11T00:36:55.723Z,5.50
2024-02-11T00:38:00.268Z,5.51
2024-02-11T00:39:06.671Z,5.51
2024-02-11T00:40:11.290Z,5.52
2024-02-11T00:41:14.295Z,5.53
2024-02-11T00:42:20.936Z,5.54
2024-02-11T00:43:23.909Z,5.55
2024-02-11T00:44:26.849Z,5.56
2024-02-11T00:45:30.372Z,5.56
2024-02-11T00:46:33.272Z,5.57
2024-02-11T00:47:37.380Z,5.58
2024-02-11T00:48:40.486Z,5.58
2024-02-11T00:49:45.231Z,5.57
2024-02-11T00:50:49.684Z,5.56
2024-02-11T00:51:52.509Z,5.56
2024-02-11T00:52:55.460Z,5.56
2024-02-11T00:53:58.795Z,5.56
2024-02-11T00:55:01.791Z,5.58
2024-02-11T00:56:05.011Z,5.58
2024-02-11T00:57:08.642Z,5.58
2024-02-11T00:58:11.778Z,5.60
2024-02-11T00:59:16.211Z,5.59
2024-02-11T01:00:19.679Z,5.59
2024-02-11T01:01:23.775Z,5.59
2024-02-11T01:02:26.764Z,5.59
2024-02-11T01:03:30.794Z,5.60
2024-02-11T01:04:33.953Z,5.59
2024-02-11T01:05:37.684Z,5.59
2024-02-11T01:06:40.620Z,5.59
2024-02-11T01:07:43.720Z,5.60
2024-02-11T01:08:47.886Z,5.60
2024-02-11T01:09:50.815Z,5.61
2024-02-11T01:10:53.859Z,5.62
2024-02-11T01:11:59.116Z,5.64
2024-02-11T01:13:02.218Z,5.65
2024-02-11T01:14:06.345Z,5.67
2024-02-11T01:15:14.726Z,5.67
2024-02-11T01:16:17.811Z,5.67
2024-02-11T01:17:21.197Z,5.68
2024-02-11T01:18:24.168Z,5.69
2024-02-11T01:19:27.273Z,5.70
2024-02-11T01:20:30.469Z,5.70
2024-02-11T01:21:33.613Z,5.70
2024-02-11T01:22:36.978Z,5.71
2024-02-11T01:23:39.858Z,5.71
2024-02-11T01:24:42.995Z,5.72
2024-02-11T01:25:46.221Z,5.74
2024-02-11T01:26:50.532Z,5.75
2024-02-11T01:27:53.709Z,5.74
2024-02-11T01:28:56.700Z,5.75
2024-02-11T01:30:00.064Z,5.75
2024-02-11T01:31:03.223Z,5.74
2024-02-11T01:32:06.660Z,5.74
2024-02-11T01:33:10.562Z,5.75
2024-02-11T01:34:13.647Z,5.75
2024-02-11T01:35:16.770Z,5.75
2024-02-11T01:36:19.671Z,5.76
2024-02-11T01:37:22.748Z,5.75
2024-02-11T01:38:25.654Z,5.75
2024-02-11T01:39:28.767Z,5.75
2024-02-11T01:40:32.780Z,5.76
2024-02-11T01:41:35.668Z,5.75
2024-02-11T01:42:40.365Z,5.75
2024-02-11T01:43:43.357Z,5.76
2024-02-11T01:44:46.331Z,5.75
2024-02-11T01:45:49.621Z,5.76
2024-02-11T01:46:52.698Z,5.75
2024-02-11T01:47:55.688Z,5.76
2024-02-11T01:49:06.243Z,5.75
2024-02-11T01:50:15.198Z,5.74
2024-02-11T01:51:18.793Z,5.74
2024-02-11T01:52:21.781Z,5.75
2024-02-11T01:53:28.211Z,5.75
2024-02-11T01:54:31.501Z,5.75
2024-02-11T01:55:35.816Z,5.74
2024-02-11T01:56:40.036Z,5.73
2024-02-11T01:57:43.927Z,5.73
2024-02-11T01:58:49.359Z,5.72
2024-02-11T01:59:52.289Z,5.73
2024-02-11T02:00:56.460Z,5.72
2024-02-11T02:02:00.071Z,5.71
2024-02-11T02:03:05.312Z,5.71
2024-02-11T02:04:08.530Z,5.70
2024-02-11T02:05:11.792Z,5.70
2024-02-11T02:06:18.163Z,5.70
2024-02-11T02:07:21.704Z,5.69
2024-02-11T02:08:24.938Z,5.70
2024-02-11T02:09:27.963Z,5.71
2024-02-11T02:10:31.806Z,5.71
2024-02-11T02:11:36.430Z,5.72
2024-02-11T02:12:41.929Z,5.73
2024-02-11T02:13:45.042Z,5.75
2024-02-11T02:14:51.568Z,5.76
2024-02-11T02:15:54.493Z,5.76
2024-02-11T02:16:58.011Z,5.76
2024-02-11T02:18:01.156Z,5.76
2024-02-11T02:19:04.877Z,5.75
2024-02-11T02:20:08.941Z,5.75
2024-02-11T02:21:12.189Z,5.76
2024-02-11T02:22:15.108Z,5.77
2024-02-11T02:23:18.256Z,5.78
2024-02-11T02:24:21.901Z,5.78
2024-02-11T02:25:25.522Z,5.79
2024-02-11T02:26:28.466Z,5.79
2024-02-11T02:27:31.351Z,5.79
2024-02-11T02:28:38.460Z,5.79
2024-02-11T02:29:41.428Z,5.78
2024-02-11T02:32:35.953Z,5.75
2024-02-11T02:33:39.470Z,5.74
2024-02-11T02:34:44.620Z,5.75
2024-02-11T02:35:47.736Z,5.76
2024-02-11T02:36:51.982Z,5.76
2024-02-11T02:37:55.507Z,5.76
2024-02-11T02:38:58.831Z,5.77
2024-02-11T02:40:02.047Z,5.76
2024-02-11T02:41:05.152Z,5.76
2024-02-11T02:42:08.286Z,5.75
2024-02-11T02:43:13.207Z,5.75
2024-02-11T02:44:16.539Z,5.75
2024-02-11T02:45:19.755Z,5.74
2024-02-11T02:46:22.888Z,5.73
2024-02-11T02:47:25.881Z,5.73
2024-02-11T02:48:30.279Z,5.72
2024-02-11T02:49:33.640Z,5.73
2024-02-11T02:50:36.894Z,5.74
2024-02-11T02:51:42.749Z,5.74
2024-02-11T02:52:45.833Z,5.75
2024-02-11T02:53:50.539Z,5.76
2024-02-11T02:54:53.518Z,5.77
2024-02-11T02:55:57.742Z,5.77
2024-02-11T02:57:00.796Z,5.78
2024-02-11T02:58:08.715Z,5.77
2024-02-11T02:59:11.958Z,5.78
2024-02-11T03:00:18.097Z,5.77
2024-02-11T03:01:27.296Z,5.77
2024-02-11T03:02:30.337Z,5.76
2024-02-11T03:03:33.696Z,5.76
2024-02-11T03:04:39.548Z,5.76
2024-02-11T03:05:45.327Z,5.75
2024-02-11T03:06:48.773Z,5.74
2024-02-11T03:07:53.692Z,5.74
2024-02-11T03:08:57.406Z,5.75
2024-02-11T03:10:02.149Z,5.75
2024-02-11T03:11:05.155Z,5.76
2024-02-11T03:12:08.386Z,5.75
2024-02-11T03:13:11.288Z,5.76
2024-02-11T03:14:14.219Z,5.76
2024-02-11T03:15:17.634Z,5.75
2024-02-11T03:16:20.685Z,5.75
2024-02-11T03:17:24.195Z,5.74
2024-02-11T03:18:27.286Z,5.74
2024-02-11T03:19:30.188Z,5.73
2024-02-11T03:20:35.282Z,5.73
2024-02-11T03:21:40.009Z,5.73
2024-02-11T03:22:44.209Z,5.72
2024-02-11T03:23:47.202Z,5.71
2024-02-11T03:24:50.129Z,5.72
2024-02-11T03:25:53.241Z,5.71
2024-02-11T03:26:58.021Z,5.70
2024-02-11T03:28:01.065Z,5.69
2024-02-11T03:29:04.848Z,5.69
2024-02-11T03:30:09.301Z,5.69
2024-02-11T03:31:12.346Z,5.69
2024-02-11T03:32:15.312Z,5.70
2024-02-11T03:33:18.193Z,5.70
2024-02-11T03:34:21.216Z,5.70
2024-02-11T03:35:24.671Z,5.71
2024-02-11T03:36:28.246Z,5.71
2024-02-11T03:37:35.063Z,5.71
2024-02-11T03:38:38.050Z,5.71
2024-02-11T03:39:41.000Z,5.71
2024-02-11T03:40:43.976Z,5.71
2024-02-11T03:41:47.660Z,5.71
2024-02-11T03:42:51.937Z,5.70
2024-02-11T03:43:55.074Z,5.70
2024-02-11T03:44:58.012Z,5.70
2024-02-11T03:46:01.914Z,5.70
2024-02-11T03:47:05.547Z,5.70
2024-02-11T03:48:09.016Z,5.70
2024-02-11T03:49:12.172Z,5.70
2024-02-11T03:50:16.103Z,5.70
2024-02-11T03:51:19.334Z,5.69
2024-02-11T03:52:22.261Z,5.68
2024-02-11T03:53:25.736Z,5.67
2024-02-11T03:54:29.434Z,5.67
2024-02-11T03:55:32.751Z,5.67
2024-02-11T03:56:40.966Z,5.66
2024-02-11T03:57:44.007Z,5.66
2024-02-11T03:58:46.975Z,5.67
2024-02-11T03:59:50.308Z,5.67
2024-02-11T04:00:53.393Z,5.67
2024-02-11T04:01:57.166Z,5.67
2024-02-11T04:03:00.977Z,5.66
2024-02-11T04:04:04.556Z,5.65
2024-02-11T04:05:08.122Z,5.65
2024-02-11T04:06:13.226Z,5.66
2024-02-11T04:07:17.014Z,5.66
2024-02-11T04:08:20.197Z,5.66
2024-02-11T04:09:29.725Z,5.66
2024-02-11T04:10:37.890Z,5.66
2024-02-11T04:11:43.158Z,5.66
2024-02-11T04:12:55.995Z,5.67
2024-02-11T04:14:00.447Z,5.66
2024-02-11T04:15:04.017Z,5.66
2024-02-11T04:16:12.258Z,5.65
2024-02-11T04:17:15.985Z,5.66
2024-02-11T04:18:22.559Z,5.66
2024-02-11T04:19:26.798Z,5.66
2024-02-11T04:20:30.263Z,5.67
2024-02-11T04:21:36.538Z,5.67
2024-02-11T04:22:39.673Z,5.66
2024-02-11T04:23:47.920Z,5.66
2024-02-11T04:24:50.971Z,5.65
2024-02-11T04:25:54.259Z,5.66
2024-02-11T04:26:58.617Z,5.66
2024-02-11T04:28:12.361Z,5.65
2024-02-11T04:29:15.839Z,5.64
2024-02-11T04:30:22.286Z,5.64
2024-02-11T04:31:27.051Z,5.65
2024-02-11T04:32:30.128Z,5.64
2024-02-11T04:33:33.037Z,5.62
2024-02-11T04:34:36.058Z,5.61
2024-02-11T04:35:40.791Z,5.61
2024-02-11T04:36:43.736Z,5.60
2024-02-11T04:37:50.793Z,5.59
2024-02-11T04:38:53.947Z,5.57
2024-02-11T04:39:56.947Z,5.58
2024-02-11T04:41:02.398Z,5.58
2024-02-11T04:42:05.843Z,5.58
2024-02-11T04:43:08.980Z,5.58
2024-02-11T04:44:12.790Z,5.58
2024-02-11T04:45:17.236Z,5.58
2024-02-11T04:46:20.802Z,5.58
2024-02-11T04:47:24.959Z,5.58
2024-02-11T04:48:28.094Z,5.59
2024-02-11T04:49:31.106Z,5.59
2024-02-11T04:50:36.320Z,5.59
2024-02-11T04:51:40.620Z,5.59
2024-02-11T04:52:50.022Z,5.58
2024-02-11T04:53:54.319Z,5.58
2024-02-11T04:54:58.089Z,5.58
2024-02-11T04:56:01.230Z,5.58
2024-02-11T04:57:05.077Z,5.58
2024-02-11T04:58:15.437Z,5.58
2024-02-11T04:59:19.204Z,5.58
2024-02-11T05:00:25.472Z,5.56
2024-02-11T05:01:28.820Z,5.57
2024-02-11T05:02:31.740Z,5.59
2024-02-11T05:03:34.816Z,5.60
2024-02-11T05:04:37.760Z,5.61
2024-02-11T05:05:42.715Z,5.61
2024-02-11T05:06:47.692Z,5.63
2024-02-11T05:07:50.755Z,5.63
2024-02-11T05:08:56.723Z,5.64
2024-02-11T05:10:00.335Z,5.65
2024-02-11T05:11:03.893Z,5.65
2024-02-11T05:12:09.634Z,5.67
2024-02-11T05:13:15.080Z,5.66
2024-02-11T05:14:18.348Z,5.67
2024-02-11T05:15:21.812Z,5.67
2024-02-11T05:16:29.375Z,5.67
2024-02-11T05:17:36.534Z,5.67
2024-02-11T05:18:40.088Z,5.67
2024-02-11T05:19:47.102Z,5.68
2024-02-11T05:20:50.306Z,5.69
2024-02-11T05:21:53.534Z,5.69
2024-02-11T05:22:59.747Z,5.69
2024-02-11T05:24:03.188Z,5.68
2024-02-11T05:25:06.389Z,5.68
2024-02-11T05:26:13.746Z,5.68
2024-02-11T05:27:16.811Z,5.67
2024-02-11T05:28:21.029Z,5.67
2024-02-11T05:29:25.431Z,5.67
2024-02-11T05:30:30.349Z,5.67
2024-02-11T05:31:33.322Z,5.66
2024-02-11T05:32:36.900Z,5.67
2024-02-11T05:33:40.242Z,5.66
2024-02-11T05:34:43.526Z,5.66
2024-02-11T05:35:47.843Z,5.67
2024-02-11T05:36:51.277Z,5.66
2024-02-11T05:38:00.658Z,5.66
2024-02-11T05:39:04.216Z,5.65
2024-02-11T05:40:11.510Z,5.64
2024-02-11T05:41:14.558Z,5.64
2024-02-11T05:42:18.584Z,5.64
2024-02-11T05:43:22.081Z,5.63
2024-02-11T05:44:25.328Z,5.63
2024-02-11T05:45:29.240Z,5.64
2024-02-11T05:46:32.198Z,5.64
2024-02-11T05:47:35.120Z,5.65
2024-02-11T05:48:38.754Z,5.66
2024-02-11T05:49:43.188Z,5.66
2024-02-11T05:50:47.692Z,5.68
2024-02-11T05:51:50.913Z,5.68
2024-02-11T05:52:55.519Z,5.69
2024-02-11T05:53:58.468Z,5.70
2024-02-11T05:55:02.047Z,5.71
2024-02-11T05:56:06.411Z,5.71
2024-02-11T05:57:11.055Z,5.72
2024-02-11T05:58:14.746Z,5.72
2024-02-11T05:59:18.791Z,5.72
2024-02-11T06:00:27.016Z,5.71
2024-02-11T06:01:30.037Z,5.72
2024-02-11T06:02:32.987Z,5.73
2024-02-11T06:03:37.514Z,5.74
2024-02-11T06:04:40.677Z,5.74
2024-02-11T06:05:43.921Z,5.75
2024-02-11T06:06:47.483Z,5.76
2024-02-11T06:07:56.129Z,5.77
2024-02-11T06:08:59.302Z,5.78
2024-02-11T06:10:02.610Z,5.79
2024-02-11T06:11:05.556Z,5.81
2024-02-11T06:12:09.756Z,5.81
2024-02-11T06:13:13.516Z,5.82
2024-02-11T06:14:16.662Z,5.82
2024-02-11T06:15:23.663Z,5.82
2024-02-11T06:16:26.710Z,5.81
2024-02-11T06:17:30.383Z,5.79
2024-02-11T06:18:33.433Z,5.78
2024-02-11T06:19:39.103Z,5.78
2024-02-11T06:20:42.416Z,5.77
2024-02-11T06:21:45.925Z,5.77
2024-02-11T06:22:56.325Z,5.77
2024-02-11T06:23:59.332Z,5.76
2024-02-11T06:25:02.781Z,5.76
2024-02-11T06:26:05.936Z,5.76
2024-02-11T06:27:10.491Z,5.77
2024-02-11T06:28:13.542Z,5.78
2024-02-11T06:29:16.725Z,5.79
2024-02-11T06:30:21.150Z,5.79
2024-02-11T06:31:24.457Z,5.79
2024-02-11T06:32:28.112Z,5.79
2024-02-11T06:33:31.300Z,5.78
2024-02-11T06:34:36.149Z,5.78
2024-02-11T06:35:41.019Z,5.78
2024-02-11T06:36:44.166Z,5.78
2024-02-11T06:37:50.014Z,5.79
2024-02-11T06:38:53.743Z,5.80
2024-02-11T06:39:56.892Z,5.81
2024-02-11T06:40:59.848Z,5.82
2024-02-11T06:42:04.342Z,5.83
2024-02-11T06:43:13.198Z,5.84
2024-02-11T06:44:17.824Z,5.87
2024-02-11T06:45:21.445Z,5.88
2024-02-11T06:46:24.455Z,5.89
2024-02-11T06:47:28.133Z,5.90
2024-02-11T06:48:31.221Z,5.90
2024-02-11T06:49:34.846Z,5.92
2024-02-11T06:50:37.844Z,5.92
2024-02-11T06:51:40.773Z,5.93
2024-02-11T06:52:44.871Z,5.95
2024-02-11T06:53:48.082Z,5.95
2024-02-11T06:54:51.466Z,5.95
2024-02-11T06:55:54.601Z,5.96
2024-02-11T06:56:57.791Z,5.96
2024-02-11T06:58:00.705Z,5.96
2024-02-11T06:59:05.113Z,5.97
2024-02-11T07:00:10.543Z,5.97
2024-02-11T07:01:14.335Z,5.97
2024-02-11T07:02:17.389Z,5.97
2024-02-11T07:03:20.928Z,5.98
2024-02-11T07:04:24.745Z,5.97
2024-02-11T07:05:28.010Z,5.96
2024-02-11T07:06:31.613Z,5.96
2024-02-11T07:07:35.006Z,5.95
2024-02-11T07:08:38.184Z,5.96
2024-02-11T07:09:42.339Z,5.94
2024-02-11T07:10:45.606Z,5.94
2024-02-11T07:11:50.259Z,5.94
2024-02-11T07:12:53.553Z,5.95
2024-02-11T07:13:56.454Z,5.95
2024-02-11T07:14:59.354Z,5.96
2024-02-11T07:16:02.474Z,5.97
2024-02-11T07:17:05.445Z,5.97
2024-02-11T07:18:10.056Z,5.99
2024-02-11T07:19:13.766Z,5.99
2024-02-11T07:20:17.717Z,6.00
2024-02-11T07:21:22.884Z,6.01
2024-02-11T07:22:28.791Z,6.02
2024-02-11T07:23:33.328Z,6.03
2024-02-11T07:24:40.729Z,6.03
2024-02-11T07:25:43.785Z,6.04
2024-02-11T07:26:50.403Z,6.04
2024-02-11T07:27:53.263Z,6.05
2024-02-11T07:28:56.320Z,6.07
2024-02-11T07:29:59.376Z,6.08
2024-02-11T07:31:02.360Z,6.09
2024-02-11T07:32:05.585Z,6.11
2024-02-11T07:33:09.189Z,6.12
2024-02-11T07:34:12.409Z,6.13
2024-02-11T07:35:17.723Z,6.14
2024-02-11T07:36:23.884Z,6.15
2024-02-11T07:37:26.978Z,6.16
2024-02-11T07:38:31.931Z,6.17
2024-02-11T07:39:34.933Z,6.18
2024-02-11T07:40:38.241Z,6.18
2024-02-11T07:41:42.420Z,6.18
2024-02-11T07:42:47.402Z,6.19
2024-02-11T07:43:51.076Z,6.20
2024-02-11T07:44:54.018Z,6.20
2024-02-11T07:45:59.177Z,6.21
2024-02-11T07:47:03.442Z,6.22
2024-02-11T07:48:09.075Z,6.23
2024-02-11T07:49:14.498Z,6.23
2024-02-11T07:50:18.923Z,6.24
2024-02-11T07:51:23.851Z,6.25
2024-02-11T07:52:26.773Z,6.26
2024-02-11T07:53:29.762Z,6.27
2024-02-11T07:54:33.807Z,6.29
2024-02-11T07:55:36.967Z,6.29
2024-02-11T07:56:40.203Z,6.30
2024-02-11T07:57:43.095Z,6.31
2024-02-11T07:58:46.251Z,6.31
2024-02-11T07:59:49.332Z,6.31
2024-02-11T08:00:52.388Z,6.31
2024-02-11T08:01:57.013Z,6.30
2024-02-11T08:03:00.210Z,6.30
2024-02-11T08:04:03.270Z,6.31
2024-02-11T08:05:07.846Z,6.31
2024-02-11T08:06:11.141Z,6.31
2024-02-11T08:07:14.464Z,6.31
2024-02-11T08:08:17.341Z,6.33
2024-02-11T08:09:20.291Z,6.32
2024-02-11T08:10:23.437Z,6.33
2024-02-11T08:11:26.400Z,6.33
2024-02-11T08:12:29.562Z,6.32
2024-02-11T08:13:34.007Z,6.32
2024-02-11T08:14:39.897Z,6.32
2024-02-11T08:15:42.867Z,6.33
2024-02-11T08:16:47.204Z,6.33
2024-02-11T08:17:50.349Z,6.34
2024-02-11T08:18:55.962Z,6.35
2024-02-11T08:19:59.169Z,6.35
2024-02-11T08:21:03.814Z,6.36
2024-02-11T08:22:08.140Z,6.37
2024-02-11T08:23:11.365Z,6.38
2024-02-11T08:24:14.302Z,6.38
2024-02-11T08:25:17.751Z,6.39
2024-02-11T08:26:21.992Z,6.38
2024-02-11T08:27:25.054Z,6.40
2024-02-11T08:28:28.060Z,6.41
2024-02-11T08:29:30.962Z,6.41
2024-02-11T08:30:34.015Z,6.42
2024-02-11T08:31:36.931Z,6.43
2024-02-11T08:32:40.312Z,6.44
2024-02-11T08:33:47.305Z,6.44
2024-02-11T08:34:51.302Z,6.44
2024-02-11T08:35:54.227Z,6.43
2024-02-11T08:36:57.097Z,6.42
2024-02-11T08:37:59.983Z,6.42
2024-02-11T08:39:03.965Z,6.42
2024-02-11T08:40:08.718Z,6.42
2024-02-11T08:41:11.880Z,6.41
2024-02-11T08:42:15.559Z,6.41
2024-02-11T08:43:20.614Z,6.41
2024-02-11T08:44:25.335Z,6.40
2024-02-11T08:45:28.388Z,6.40
2024-02-11T08:46:31.432Z,6.40
2024-02-11T08:47:36.085Z,6.40
2024-02-11T08:48:39.238Z,6.41
2024-02-11T08:49:42.376Z,6.41
2024-02-11T08:50:45.519Z,6.42
2024-02-11T08:51:48.981Z,6.43
2024-02-11T08:52:51.952Z,6.43
2024-02-11T08:53:54.795Z,6.42
2024-02-11T08:54:57.686Z,6.43
2024-02-11T08:56:01.200Z,6.43
2024-02-11T08:57:04.470Z,6.44
2024-02-11T08:58:07.476Z,6.44
2024-02-11T08:59:14.467Z,6.45
2024-02-11T09:00:19.564Z,6.44
2024-02-11T09:01:22.539Z,6.45
2024-02-11T09:02:32.082Z,6.46
2024-02-11T09:03:38.802Z,6.47
2024-02-11T09:04:42.880Z,6.47
2024-02-11T09:05:46.795Z,6.49
2024-02-11T09:06:51.272Z,6.50
2024-02-11T09:07:54.304Z,6.51
2024-02-11T09:08:57.514Z,6.52
2024-02-11T09:10:00.865Z,6.53
2024-02-11T09:11:08.016Z,6.55
2024-02-11T09:12:12.152Z,6.57
2024-02-11T09:13:15.036Z,6.59
2024-02-11T09:14:18.413Z,6.62
2024-02-11T09:15:21.475Z,6.65
2024-02-11T09:16:27.579Z,6.67
2024-02-11T09:17:34.086Z,6.69
2024-02-11T09:18:37.750Z,6.71
2024-02-11T09:19:41.000Z,6.73
2024-02-11T09:20:44.574Z,6.76
2024-02-11T09:21:47.779Z,6.78
2024-02-11T09:22:51.273Z,6.80
2024-02-11T09:23:56.364Z,6.81
2024-02-11T09:24:59.662Z,6.82
2024-02-11T09:26:04.039Z,6.83
2024-02-11T09:27:12.171Z,6.86
2024-02-11T09:28:15.196Z,6.88
2024-02-11T09:29:19.151Z,6.89
2024-02-11T09:30:22.384Z,6.92
2024-02-11T09:31:25.820Z,6.92
2024-02-11T09:32:29.462Z,6.93
2024-02-11T09:33:32.813Z,6.94
2024-02-11T09:34:35.868Z,6.95
2024-02-11T09:35:39.232Z,6.96
2024-02-11T09:36:43.302Z,6.97
2024-02-11T09:37:46.512Z,6.98
2024-02-11T09:38:49.621Z,7.00
2024-02-11T09:39:52.517Z,7.01
2024-02-11T09:40:55.559Z,7.03
2024-02-11T09:41:58.481Z,7.02
2024-02-11T09:43:03.048Z,7.03
2024-02-11T09:44:08.006Z,7.03
2024-02-11T09:45:12.103Z,7.05
2024-02-11T09:46:18.467Z,7.06
2024-02-11T09:47:23.375Z,7.06
2024-02-11T09:48:27.469Z,7.08
2024-02-11T09:49:32.572Z,7.09
2024-02-11T09:50:36.391Z,7.10
2024-02-11T09:51:39.490Z,7.13
2024-02-11T09:52:42.460Z,7.14
2024-02-11T09:53:48.050Z,7.15
2024-02-11T09:54:52.122Z,7.17
2024-02-11T09:55:55.660Z,7.19
2024-02-11T09:57:03.826Z,7.20
2024-02-11T09:58:06.972Z,7.20
2024-02-11T09:59:14.725Z,7.21
2024-02-11T10:00:20.011Z,7.22
2024-02-11T10:01:23.156Z,7.23
2024-02-11T10:02:27.026Z,7.23
2024-02-11T10:03:31.850Z,7.25
2024-02-11T10:04:39.307Z,7.25
2024-02-11T10:05:45.090Z,7.26
2024-02-11T10:06:48.436Z,7.26
2024-02-11T10:07:55.726Z,7.26
2024-02-11T10:08:58.757Z,7.26
2024-02-11T10:10:04.240Z,7.25
2024-02-11T10:11:09.249Z,7.26
2024-02-11T10:12:12.353Z,7.27
2024-02-11T10:13:24.881Z,7.27
2024-02-11T10:14:31.045Z,7.26
2024-02-11T10:15:41.873Z,7.26
2024-02-11T10:16:44.822Z,7.24
2024-02-11T10:17:48.938Z,7.23
2024-02-11T10:18:52.293Z,7.21
2024-02-11T10:19:55.601Z,7.21
2024-02-11T10:20:59.192Z,7.22
2024-02-11T10:22:14.532Z,7.22
2024-02-11T10:23:25.512Z,7.23
2024-02-11T10:24:30.761Z,7.23
2024-02-11T10:25:38.121Z,7.24
2024-02-11T10:26:41.775Z,7.24
2024-02-11T10:27:45.798Z,7.24
2024-02-11T10:28:49.900Z,7.24
2024-02-11T10:29:53.035Z,7.25
2024-02-11T10:30:56.653Z,7.26
2024-02-11T10:31:59.621Z,7.27
2024-02-11T10:33:04.176Z,7.27
2024-02-11T10:34:09.969Z,7.29
2024-02-11T10:35:16.239Z,7.30
2024-02-11T10:36:19.950Z,7.32
2024-02-11T10:37:23.062Z,7.33
2024-02-11T10:38:26.672Z,7.35
2024-02-11T10:39:30.290Z,7.36
2024-02-11T10:40:36.663Z,7.37
2024-02-11T10:41:42.692Z,7.38
2024-02-11T10:42:46.757Z,7.39
2024-02-11T10:43:52.916Z,7.39
2024-02-11T10:44:55.962Z,7.40
2024-02-11T10:46:00.374Z,7.42
2024-02-11T10:47:06.115Z,7.43
2024-02-11T10:48:09.088Z,7.44
2024-02-11T10:49:13.041Z,7.45
2024-02-11T10:50:16.102Z,7.47
2024-02-11T10:51:24.876Z,7.47
2024-02-11T10:52:44.771Z,7.47
2024-02-11T10:53:54.174Z,7.47
2024-02-11T10:55:03.355Z,7.46
2024-02-11T10:56:11.058Z,7.47
2024-02-11T10:57:21.358Z,7.48
2024-02-11T10:58:28.679Z,7.49
2024-02-11T10:59:38.920Z,7.48
2024-02-11T11:00:43.897Z,7.49
2024-02-11T11:01:47.168Z,7.48
2024-02-11T11:02:57.303Z,7.49
2024-02-11T11:04:02.129Z,7.50
2024-02-11T11:05:13.196Z,7.52
2024-02-11T11:06:19.752Z,7.51
2024-02-11T11:07:24.654Z,7.51
2024-02-11T11:08:27.890Z,7.51
2024-02-11T11:09:31.617Z,7.54
2024-02-11T11:10:38.760Z,7.56
2024-02-11T11:11:41.782Z,7.58
2024-02-11T11:12:54.896Z,7.60
2024-02-11T11:13:59.376Z,7.61
2024-02-11T11:15:10.138Z,7.63
2024-02-11T11:16:13.081Z,7.64
2024-02-11T11:17:25.437Z,7.65
2024-02-11T11:18:28.642Z,7.66
2024-02-11T11:19:33.657Z,7.68
2024-02-11T11:20:38.604Z,7.70
2024-02-11T11:21:57.218Z,7.71
2024-02-11T11:23:01.633Z,7.72
2024-02-11T11:24:04.913Z,7.74
2024-02-11T11:25:15.288Z,7.75
2024-02-11T11:26:22.596Z,7.75
2024-02-11T11:27:26.433Z,7.76
2024-02-11T11:28:31.612Z,7.77
2024-02-11T11:29:34.604Z,7.78
2024-02-11T11:30:37.559Z,7.77
2024-02-11T11:31:41.105Z,7.77
2024-02-11T11:32:50.396Z,7.77
2024-02-11T11:33:54.129Z,7.77
2024-02-11T11:34:57.831Z,7.76
2024-02-11T11:36:03.196Z,7.77
2024-02-11T11:37:16.830Z,7.78
2024-02-11T11:38:23.407Z,7.79
2024-02-11T11:39:30.181Z,7.80
2024-02-11T11:40:38.504Z,7.82
2024-02-11T11:41:42.310Z,7.84
2024-02-11T11:42:45.450Z,7.84
2024-02-11T11:43:48.521Z,7.84
2024-02-11T11:44:51.385Z,7.84
2024-02-11T11:45:55.706Z,7.83
2024-02-11T11:46:59.363Z,7.83
2024-02-11T11:48:03.464Z,7.83
2024-02-11T11:49:06.878Z,7.83
2024-02-11T11:50:10.749Z,7.81
2024-02-11T11:51:13.950Z,7.80
2024-02-11T11:52:17.534Z,7.78
2024-02-11T11:53:22.273Z,7.76
2024-02-11T11:54:32.384Z,7.74
2024-02-11T11:55:35.377Z,7.73
2024-02-11T11:56:38.753Z,7.73
2024-02-11T11:57:41.902Z,7.72
2024-02-11T11:58:44.858Z,7.73
2024-02-11T11:59:57.137Z,7.73
2024-02-11T12:01:08.847Z,7.73
2024-02-11T12:02:11.974Z,7.73
2024-02-11T12:03:14.922Z,7.73
2024-02-11T12:04:24.136Z,7.73
2024-02-11T12:05:27.410Z,7.73
2024-02-11T12:06:30.597Z,7.74
2024-02-11T12:07:34.682Z,7.73
2024-02-11T12:08:39.241Z,7.71
2024-02-11T12:09:42.570Z,7.70
2024-02-11T12:10:55.242Z,7.69
2024-02-11T12:11:59.283Z,7.70
2024-02-11T12:13:02.390Z,7.70
2024-02-11T12:14:05.454Z,7.70
2024-02-11T12:15:10.986Z,7.70
2024-02-11T12:16:19.235Z,7.68
2024-02-11T12:17:22.504Z,7.67
2024-02-11T12:18:27.367Z,7.65
2024-02-11T12:19:39.847Z,7.64
2024-02-11T12:20:44.951Z,7.63
2024-02-11T12:21:51.208Z,7.63
2024-02-11T12:22:56.114Z,7.63
2024-02-11T12:24:02.097Z,7.62
2024-02-11T12:25:05.566Z,7.60
2024-02-11T12:26:08.935Z,7.58
2024-02-11T12:27:15.618Z,7.57
2024-02-11T12:28:26.312Z,7.56
2024-02-11T12:29:29.252Z,7.55
2024-02-11T12:30:32.186Z,7.52
2024-02-11T12:31:37.069Z,7.52
2024-02-11T12:32:40.053Z,7.52
2024-02-11T12:33:54.100Z,7.53
2024-02-11T12:34:58.225Z,7.53
2024-02-11T12:36:07.302Z,7.53
2024-02-11T12:37:13.036Z,7.54
2024-02-11T12:38:16.131Z,7.54
2024-02-11T12:39:19.807Z,7.55
2024-02-11T12:40:24.436Z,7.56
2024-02-11T12:41:28.332Z,7.56
2024-02-11T12:42:32.327Z,7.56
2024-02-11T12:43:35.863Z,7.56
2024-02-11T12:44:38.763Z,7.56
2024-02-11T12:45:41.686Z,7.57
2024-02-11T12:46:45.476Z,7.56
2024-02-11T12:47:49.078Z,7.55
2024-02-11T12:48:52.414Z,7.55
2024-02-11T12:49:55.585Z,7.55
2024-02-11T12:50:58.699Z,7.54
2024-02-11T12:52:05.074Z,7.54
2024-02-11T12:53:12.561Z,7.53
2024-02-11T12:54:16.537Z,7.51
2024-02-11T12:55:20.929Z,7.50
2024-02-11T12:56:24.518Z,7.49
2024-02-11T12:57:28.433Z,7.47
2024-02-11T12:58:31.303Z,7.48
2024-02-11T12:59:34.374Z,7.46
2024-02-11T13:00:37.340Z,7.46
2024-02-11T13:01:40.407Z,7.45
2024-02-11T13:02:43.961Z,7.45
2024-02-11T13:03:47.769Z,7.44
2024-02-11T13:04:50.860Z,7.44
2024-02-11T13:05:55.098Z,7.43
2024-02-11T13:06:58.418Z,7.43
2024-02-11T13:08:01.451Z,7.43
2024-02-11T13:09:04.513Z,7.42
2024-02-11T13:10:11.766Z,7.41
2024-02-11T13:11:15.803Z,7.38
2024-02-11T13:12:19.261Z,7.37
2024-02-11T13:13:22.149Z,7.36
2024-02-11T13:14:25.232Z,7.37
2024-02-11T13:15:28.499Z,7.37
2024-02-11T13:16:33.655Z,7.36
2024-02-11T13:17:37.712Z,7.36
2024-02-11T13:18:40.907Z,7.35
2024-02-11T13:19:44.129Z,7.34
2024-02-11T13:20:47.374Z,7.35
2024-02-11T13:21:52.889Z,7.34
2024-02-11T13:22:56.268Z,7.34
2024-02-11T13:23:59.166Z,7.34
2024-02-11T13:25:02.476Z,7.33
2024-02-11T13:26:05.915Z,7.33
2024-02-11T13:27:09.030Z,7.33
2024-02-11T13:28:11.964Z,7.33
2024-02-11T13:29:14.915Z,7.32
2024-02-11T13:30:18.961Z,7.31
2024-02-11T13:31:26.826Z,7.31
2024-02-11T13:32:30.690Z,7.32
2024-02-11T13:33:34.078Z,7.33
2024-02-11T13:34:37.408Z,7.35
2024-02-11T13:35:40.735Z,7.38
2024-02-11T13:36:45.184Z,7.39
2024-02-11T13:37:48.188Z,7.39
2024-02-11T13:38:51.979Z,7.39
2024-02-11T13:39:57.879Z,7.39
2024-02-11T13:41:01.356Z,7.40
2024-02-11T13:42:06.146Z,7.40
2024-02-11T13:43:09.057Z,7.40
2024-02-11T13:44:12.096Z,7.39
2024-02-11T13:45:15.396Z,7.38
2024-02-11T13:46:18.420Z,7.38
2024-02-11T13:47:21.717Z,7.38
2024-02-11T13:48:24.694Z,7.37
2024-02-11T13:49:27.639Z,7.36
2024-02-11T13:50:31.007Z,7.35
2024-02-11T13:51:34.131Z,7.33
2024-02-11T13:52:37.577Z,7.32
2024-02-11T13:53:40.737Z,7.31
2024-02-11T13:54:43.792Z,7.31
2024-02-11T13:55:46.986Z,7.29
2024-02-11T13:56:49.913Z,7.29
2024-02-11T13:57:52.940Z,7.28
2024-02-11T13:58:55.952Z,7.28
2024-02-11T13:59:59.511Z,7.27
2024-02-11T14:01:02.651Z,7.27
2024-02-11T14:02:05.661Z,7.26
2024-02-11T14:03:09.850Z,7.26
2024-02-11T14:04:13.010Z,7.24
2024-02-11T14:05:16.614Z,7.23
2024-02-11T14:06:21.673Z,7.22
2024-02-11T14:07:26.985Z,7.20
2024-02-11T14:08:30.023Z,7.19
2024-02-11T14:09:33.460Z,7.16
2024-02-11T14:10:36.370Z,7.14
2024-02-11T14:11:43.157Z,7.12
2024-02-11T14:12:49.425Z,7.11
2024-02-11T14:13:52.827Z,7.11
2024-02-11T14:14:56.360Z,7.08
2024-02-11T14:15:59.837Z,7.06
2024-02-11T14:17:05.017Z,7.05
2024-02-11T14:18:10.061Z,7.05